Time;durP1;ratioP1;P1;durP2;ratioP2;P2;SDS_P1;SDS_P2;PMS_P1;PMS_P2;Temp;Humidity;BMP_temperature;BMP_pressure;BME280_temperature;BME280_humidity;BME280_pressure;Samples;Min_cycle;Max_cycle;Signal;HPM_P1;HPM_P2
2023/05/26 00:02:15;;;;;;;28.08;3.78;;;;;;;8.82;100.00;102755.28;4952474;29;20031;-95
2023/05/26 00:04:43;;;;;;;22.10;4.03;;;;;;;8.71;100.00;102752.13;4953257;29;20031;-95
2023/05/26 00:07:08;;;;;;;23.83;4.50;;;;;;;8.74;100.00;102759.75;4954356;28;20022;-94
2023/05/26 00:09:33;;;;;;;33.40;4.13;;;;;;;8.67;100.00;102744.72;4965464;28;20550;-94
2023/05/26 00:11:59;;;;;;;17.67;3.57;;;;;;;8.68;100.00;102749.84;4958706;28;20046;-95
2023/05/26 00:14:24;;;;;;;36.35;4.05;;;;;;;8.63;100.00;102758.47;4987845;28;20557;-94
2023/05/26 00:16:50;;;;;;;32.37;4.13;;;;;;;8.58;100.00;102757.41;4971590;28;20102;-94
2023/05/26 00:19:17;;;;;;;20.35;3.67;;;;;;;8.49;100.00;102754.88;4966326;28;20046;-94
2023/05/26 00:21:43;;;;;;;24.83;4.00;;;;;;;8.49;100.00;102754.88;4974466;28;20117;-94
2023/05/26 00:24:08;;;;;;;21.20;3.73;;;;;;;8.43;100.00;102760.16;4980597;28;20466;-95
2023/05/26 00:26:33;;;;;;;23.70;3.33;;;;;;;8.48;100.00;102763.09;4971118;28;20042;-95
2023/05/26 00:28:59;;;;;;;24.98;3.80;;;;;;;8.41;100.00;102762.19;4955860;28;20074;-96
2023/05/26 00:31:25;;;;;;;23.30;3.77;;;;;;;8.44;100.00;102775.16;4960075;29;20027;-94
2023/05/26 00:33:50;;;;;;;20.07;3.93;;;;;;;8.38;100.00;102771.44;4961120;29;20054;-94
2023/05/26 00:36:15;;;;;;;30.77;4.70;;;;;;;8.30;100.00;102772.41;4960779;29;20114;-95
2023/05/26 00:38:40;;;;;;;19.63;3.70;;;;;;;8.27;100.00;102774.66;4964889;28;20023;-95
2023/05/26 00:41:06;;;;;;;27.73;4.30;;;;;;;8.21;100.00;102768.25;4988488;28;20533;-96
2023/05/26 00:43:31;;;;;;;31.03;4.57;;;;;;;8.16;100.00;102781.34;4982183;28;20509;-95
2023/05/26 00:45:57;;;;;;;28.83;4.40;;;;;;;8.09;100.00;102769.78;4982603;28;20043;-95
2023/05/26 00:48:22;;;;;;;25.35;3.50;;;;;;;8.08;100.00;102768.13;4980971;28;20037;-95
2023/05/26 00:50:48;;;;;;;32.23;3.90;;;;;;;8.07;100.00;102771.81;4981115;28;20051;-94
2023/05/26 00:53:13;;;;;;;26.07;3.60;;;;;;;8.04;100.00;102763.16;4998662;28;20038;-94
2023/05/26 00:55:41;;;;;;;28.52;3.97;;;;;;;8.02;100.00;102770.56;4999696;28;20042;-94
2023/05/26 00:58:06;;;;;;;23.00;4.13;;;;;;;8.01;100.00;102774.25;4966359;28;20024;-94
2023/05/26 01:00:31;;;;;;;35.13;3.87;;;;;;;7.97;100.00;102770.31;4966986;29;20061;-93
2023/05/26 01:02:58;;;;;;;31.03;4.40;;;;;;;7.92;100.00;102770.06;4973013;28;20019;-94
2023/05/26 01:05:24;;;;;;;31.17;4.17;;;;;;;7.93;100.00;102768.22;4974023;28;20285;-93
2023/05/26 01:07:49;;;;;;;20.08;4.07;;;;;;;7.81;100.00;102762.56;4990097;28;20054;-94
2023/05/26 01:10:15;;;;;;;28.37;3.83;;;;;;;7.86;100.00;102768.97;4983417;28;20041;-93
2023/05/26 01:12:43;;;;;;;32.67;3.70;;;;;;;7.81;100.00;102774.06;5015991;28;20022;-94
2023/05/26 01:15:17;;;;;;;27.80;3.28;;;;;;;7.71;100.00;102774.38;5017151;28;20038;-94
2023/05/26 01:18:05;;;;;;;27.17;3.80;;;;;;;7.71;100.00;102773.56;4982578;28;20040;-94
2023/05/26 01:20:38;;;;;;;27.08;3.92;;;;;;;7.68;100.00;102777.41;4989049;28;20030;-94
2023/05/26 01:23:24;;;;;;;31.33;3.93;;;;;;;7.65;100.00;102780.50;4997788;28;20022;-93
2023/05/26 01:25:50;;;;;;;21.97;3.33;;;;;;;7.63;100.00;102779.00;4971897;28;20321;-94
2023/05/26 01:28:22;;;;;;;31.87;4.57;;;;;;;7.62;100.00;102785.38;4999262;28;20037;-93
2023/05/26 01:30:49;;;;;;;40.17;4.50;;;;;;;7.54;100.00;102772.97;5002705;28;20285;-94
2023/05/26 01:33:15;;;;;;;24.90;3.67;;;;;;;7.52;100.00;102781.19;4980305;28;20097;-93
2023/05/26 01:35:40;;;;;;;29.48;4.38;;;;;;;7.49;100.00;102780.72;4970175;28;20117;-94
2023/05/26 01:38:07;;;;;;;23.97;3.83;;;;;;;7.46;100.00;102778.44;4968180;28;20034;-94
2023/05/26 01:40:33;;;;;;;22.98;3.35;;;;;;;7.40;100.00;102783.50;4962064;28;20034;-94
2023/05/26 01:43:03;;;;;;;29.45;3.58;;;;;;;7.38;100.00;102785.53;4964038;28;20483;-93
2023/05/26 01:45:43;;;;;;;22.58;3.97;;;;;;;7.35;100.00;102785.09;4981314;28;20081;-95
2023/05/26 01:48:10;;;;;;;26.43;3.93;;;;;;;7.34;100.00;102786.09;4969086;28;20023;-94
2023/05/26 01:50:51;;;;;;;19.93;3.20;;;;;;;7.31;100.00;102789.13;4942870;28;20295;-95
2023/05/26 01:53:20;;;;;;;26.75;3.80;;;;;;;7.20;100.00;102779.78;4959662;29;20034;-94
2023/05/26 01:55:50;;;;;;;29.45;4.18;;;;;;;7.24;100.00;102783.72;4961185;28;20019;-93
2023/05/26 01:58:16;;;;;;;25.90;3.47;;;;;;;7.17;100.00;102777.47;4978098;28;20073;-93
2023/05/26 02:00:46;;;;;;;20.33;3.20;;;;;;;7.16;100.00;102791.81;4978352;28;20050;-94
2023/05/26 02:03:12;;;;;;;36.88;3.88;;;;;;;7.09;100.00;102792.59;4969148;28;20027;-95
2023/05/26 02:05:37;;;;;;;27.90;3.38;;;;;;;7.09;100.00;102795.25;4957173;28;20041;-93
2023/05/26 02:08:03;;;;;;;22.53;3.20;;;;;;;6.98;100.00;102787.72;4975987;28;20037;-94
2023/05/26 02:10:28;;;;;;;27.40;4.00;;;;;;;6.95;100.00;102790.75;4975144;28;20510;-94
2023/05/26 02:12:53;;;;;;;25.33;3.30;;;;;;;6.89;100.00;102786.97;4975217;28;20031;-93
2023/05/26 02:15:19;;;;;;;28.07;3.70;;;;;;;6.89;100.00;102786.19;4973415;28;20027;-94
2023/05/26 02:17:44;;;;;;;25.33;3.50;;;;;;;6.91;100.00;102797.47;4956042;28;20532;-93
2023/05/26 02:20:10;;;;;;;26.30;3.67;;;;;;;6.88;100.00;102805.84;4938854;29;20714;-94
2023/05/26 02:22:36;;;;;;;27.58;3.58;;;;;;;6.85;100.00;102796.34;4955622;29;20050;-94
2023/05/26 02:25:02;;;;;;;34.17;3.20;;;;;;;6.78;100.00;102790.94;4955643;29;20110;-94
2023/05/26 02:27:27;;;;;;;28.05;3.40;;;;;;;6.66;100.00;102795.06;4956098;28;20035;-95
2023/05/26 02:29:53;;;;;;;30.03;3.97;;;;;;;6.70;100.00;102801.69;4971130;28;20029;-94
2023/05/26 02:32:18;;;;;;;27.20;3.97;;;;;;;6.63;100.00;102795.44;4994289;28;20399;-95
2023/05/26 02:34:43;;;;;;;24.63;3.80;;;;;;;6.54;100.00;102789.38;4975170;28;20029;-94
2023/05/26 02:37:08;;;;;;;22.00;3.23;;;;;;;6.55;100.00;102793.69;4959678;28;20502;-94
2023/05/26 02:39:34;;;;;;;29.73;3.55;;;;;;;6.58;100.00;102803.16;4956258;29;20023;-93
2023/05/26 02:42:00;;;;;;;26.10;4.53;;;;;;;6.55;100.00;102792.88;4957994;29;20117;-94
2023/05/26 02:44:25;;;;;;;30.40;3.10;;;;;;;6.54;100.00;102804.53;4970029;28;20019;-94
2023/05/26 02:46:50;;;;;;;29.20;4.10;;;;;;;6.50;100.00;102794.25;4975700;28;20045;-94
2023/05/26 02:49:15;;;;;;;23.73;2.80;;;;;;;6.43;100.00;102789.81;4992302;28;20470;-95
2023/05/26 02:51:41;;;;;;;28.97;3.27;;;;;;;6.42;100.00;102791.66;4997035;28;20027;-94
2023/05/26 02:54:06;;;;;;;33.43;4.20;;;;;;;6.41;100.00;102797.16;4996087;28;20010;-93
2023/05/26 02:56:31;;;;;;;22.60;3.20;;;;;;;6.40;100.00;102793.66;4991029;28;20011;-93
2023/05/26 02:58:57;;;;;;;27.70;4.00;;;;;;;6.31;100.00;102794.75;4996580;28;20046;-95
2023/05/26 03:01:24;;;;;;;26.53;3.80;;;;;;;6.32;100.00;102801.75;4978511;28;20027;-96
2023/05/26 03:03:50;;;;;;;30.13;4.60;;;;;;;6.28;100.00;102789.78;4988610;28;20298;-92
2023/05/26 03:06:16;;;;;;;32.70;3.30;;;;;;;6.26;100.00;102795.31;4975719;28;20542;-94
2023/05/26 03:08:42;;;;;;;24.67;3.63;;;;;;;6.17;100.00;102777.75;4980544;28;20031;-94
2023/05/26 03:11:07;;;;;;;30.83;4.50;;;;;;;6.09;100.00;102775.16;4962256;28;20533;-94
2023/05/26 03:13:32;;;;;;;26.27;3.50;;;;;;;6.14;100.00;102778.09;4989384;28;20081;-94
2023/05/26 03:15:58;;;;;;;34.88;4.70;;;;;;;6.13;100.00;102787.94;4978308;28;20073;-94
2023/05/26 03:18:23;;;;;;;28.27;3.23;;;;;;;6.13;100.00;102790.59;4957804;28;20074;-92
2023/05/26 03:20:49;;;;;;;29.93;3.40;;;;;;;6.14;100.00;102805.56;4959927;28;20053;-93
2023/05/26 03:49:06;;;;;;;36.25;4.13;;;;;;;5.94;100.00;102823.78;4996762;28;20054;-88
2023/05/26 03:51:33;;;;;;;26.50;4.00;;;;;;;5.98;100.00;102830.44;4990607;28;20362;-88
2023/05/26 03:53:58;;;;;;;26.50;3.47;;;;;;;6.01;100.00;102823.97;4996908;28;20034;-88
2023/05/26 03:56:25;;;;;;;36.63;3.30;;;;;;;6.03;100.00;102824.59;4990534;28;20034;-87
2023/05/26 03:58:50;;;;;;;35.72;3.55;;;;;;;6.05;100.00;102827.91;4991738;28;20031;-87
2023/05/26 04:01:16;;;;;;;24.70;3.30;;;;;;;6.06;100.00;102826.91;4974240;28;20385;-86
2023/05/26 04:03:42;;;;;;;31.73;3.67;;;;;;;6.09;100.00;102828.41;4989917;28;20034;-87
2023/05/26 04:06:07;;;;;;;25.60;3.33;;;;;;;6.09;100.00;102825.75;5000605;28;20038;-87
2023/05/26 04:08:32;;;;;;;28.90;3.40;;;;;;;6.14;100.00;102821.53;4975989;28;20026;-87
2023/05/26 04:10:58;;;;;;;29.57;3.40;;;;;;;6.20;100.00;102817.31;4975965;28;20513;-86
2023/05/26 04:13:23;;;;;;;23.40;3.53;;;;;;;6.36;100.00;102830.47;4980905;28;20066;-87
2023/05/26 04:15:48;;;;;;;30.93;3.63;;;;;;;6.48;100.00;102822.06;4974696;28;20035;-87
2023/05/26 04:18:14;;;;;;;28.90;4.10;;;;;;;6.60;100.00;102835.75;4990004;28;20088;-87
2023/05/26 04:20:39;;;;;;;29.07;3.93;;;;;;;6.61;100.00;102840.06;5010805;28;20037;-87
2023/05/26 04:23:04;;;;;;;28.87;3.87;;;;;;;6.62;100.00;102839.06;4999330;28;20063;-86
2023/05/26 04:25:30;;;;;;;25.67;3.67;;;;;;;6.62;100.00;102836.41;4988464;28;20054;-87
2023/05/26 04:27:57;;;;;;;32.10;3.97;;;;;;;6.65;100.00;102836.03;4994798;28;20053;-88
2023/05/26 04:30:23;;;;;;;30.03;3.50;;;;;;;6.73;100.00;102841.31;4994343;28;20409;-87
2023/05/26 04:32:49;;;;;;;32.35;4.65;;;;;;;6.77;100.00;102841.75;4996869;28;20084;-87
2023/05/26 04:35:15;;;;;;;25.83;3.65;;;;;;;6.86;100.00;102839.84;5004797;28;20477;-86
2023/05/26 04:37:40;;;;;;;27.60;4.00;;;;;;;6.94;100.00;102847.72;5005017;28;20061;-84
2023/05/26 04:40:06;;;;;;;36.23;4.10;;;;;;;7.08;100.00;102844.25;4993969;28;20364;-84
2023/05/26 04:42:34;;;;;;;27.63;4.22;;;;;;;7.21;100.00;102853.44;4993618;28;20049;-86
2023/05/26 04:45:00;;;;;;;28.73;3.70;;;;;;;7.23;100.00;102848.75;4993715;28;20021;-85
2023/05/26 04:47:27;;;;;;;32.97;4.37;;;;;;;7.30;100.00;102851.50;4995917;28;20772;-88
2023/05/26 04:49:53;;;;;;;26.08;3.70;;;;;;;7.30;100.00;102847.00;4988524;28;20124;-86
2023/05/26 04:52:18;;;;;;;30.80;4.13;;;;;;;7.53;100.00;102854.03;4998608;28;20084;-87
2023/05/26 04:54:43;;;;;;;28.90;4.07;;;;;;;8.08;100.00;102850.91;4999261;28;20037;-85
2023/05/26 04:57:08;;;;;;;35.00;4.30;;;;;;;8.90;100.00;102860.19;4995114;28;20096;-85
2023/05/26 04:59:37;;;;;;;26.27;3.63;;;;;;;9.54;100.00;102854.72;5005553;28;20145;-87
2023/05/26 05:02:03;;;;;;;27.83;3.63;;;;;;;10.19;100.00;102861.44;5017354;28;20025;-88
2023/05/26 05:04:28;;;;;;;26.10;3.80;;;;;;;10.79;98.06;102865.97;5021548;28;20033;-89
2023/05/26 05:06:54;;;;;;;23.70;3.20;;;;;;;11.29;95.15;102866.25;5006907;28;20030;-89
2023/05/26 05:09:21;;;;;;;29.45;4.05;;;;;;;11.72;90.71;102867.50;4999957;28;20046;-87
2023/05/26 05:11:46;;;;;;;34.80;3.95;;;;;;;11.94;86.64;102869.84;4999875;28;20508;-89
2023/05/26 05:14:12;;;;;;;28.50;3.53;;;;;;;12.00;86.33;102868.19;4996674;28;20030;-89
2023/05/26 05:16:37;;;;;;;23.60;3.67;;;;;;;12.16;86.38;102862.28;5008241;28;20030;-90
2023/05/26 05:19:03;;;;;;;26.73;4.20;;;;;;;12.44;84.20;102873.63;4999720;28;20328;-89
2023/05/26 05:21:30;;;;;;;21.73;4.00;;;;;;;12.65;82.57;102880.47;4989369;28;20065;-89
2023/05/26 05:23:55;;;;;;;22.75;4.00;;;;;;;12.94;81.82;102876.25;4991512;28;20100;-89
2023/05/26 05:26:22;;;;;;;20.67;3.23;;;;;;;13.13;78.97;102876.25;4993958;28;20517;-88
2023/05/26 05:28:47;;;;;;;23.02;3.58;;;;;;;13.17;77.15;102889.00;4998919;28;20029;-89
2023/05/26 05:31:12;;;;;;;25.70;3.97;;;;;;;13.20;78.20;102881.53;5001396;28;20184;-89
2023/05/26 05:33:38;;;;;;;28.97;4.30;;;;;;;12.76;77.00;102877.06;5008925;28;20297;-89
2023/05/26 05:36:04;;;;;;;32.83;3.83;;;;;;;12.83;78.98;102883.19;4994266;28;20413;-88
2023/05/26 05:38:29;;;;;;;25.67;3.80;;;;;;;12.68;78.30;102883.56;4993106;28;20297;-91
2023/05/26 05:40:54;;;;;;;28.60;3.77;;;;;;;12.61;79.23;102887.31;4994189;28;20026;-92
2023/05/26 05:43:20;;;;;;;24.48;4.22;;;;;;;12.70;79.08;102880.63;4998007;28;20029;-92
2023/05/26 05:45:46;;;;;;;21.70;3.83;;;;;;;12.88;78.64;102890.56;4999278;28;20106;-92
2023/05/26 05:48:11;;;;;;;33.17;4.07;;;;;;;12.77;76.94;102885.94;4976359;28;20043;-92
2023/05/26 05:50:37;;;;;;;29.10;3.97;;;;;;;12.38;78.35;102886.91;4981889;28;20053;-92
2023/05/26 05:53:02;;;;;;;29.63;4.60;;;;;;;12.35;79.69;102889.22;4994574;28;20524;-94
2023/05/26 05:55:27;;;;;;;30.53;4.83;;;;;;;12.31;79.95;102901.44;4991787;28;20033;-90
2023/05/26 05:57:53;;;;;;;22.23;3.97;;;;;;;12.06;81.47;102900.38;5003435;28;20032;-90
2023/05/26 06:00:19;;;;;;;26.80;4.30;;;;;;;12.02;83.18;102904.53;4994668;28;20049;-93
2023/05/26 06:02:44;;;;;;;29.40;3.93;;;;;;;11.97;81.99;102905.16;4996514;28;20485;-92
2023/05/26 06:05:09;;;;;;;26.27;4.60;;;;;;;11.87;83.06;102901.28;4997737;28;20450;-90
2023/05/26 06:07:36;;;;;;;30.73;4.30;;;;;;;11.62;83.60;102902.88;5006700;28;20696;-89
2023/05/26 06:10:01;;;;;;;31.45;4.20;;;;;;;11.34;84.70;102909.38;4991187;28;20425;-87
2023/05/26 06:12:26;;;;;;;23.67;4.17;;;;;;;11.25;85.70;102910.66;4956725;28;20022;-88
2023/05/26 06:14:52;;;;;;;28.43;4.10;;;;;;;11.21;87.61;102921.00;4992516;28;20017;-90
2023/05/26 06:17:17;;;;;;;26.60;3.70;;;;;;;11.29;87.13;102922.63;5008943;28;20485;-89
2023/05/26 06:19:42;;;;;;;33.47;4.43;;;;;;;11.30;86.58;102918.91;4998863;28;20085;-91
2023/05/26 06:22:07;;;;;;;30.17;5.13;;;;;;;11.22;87.23;102911.06;4992542;28;20029;-89
2023/05/26 06:24:33;;;;;;;40.10;5.00;;;;;;;11.24;87.94;102922.41;4974105;28;20539;-87
2023/05/26 06:26:59;;;;;;;25.50;3.95;;;;;;;11.24;87.06;102919.72;4991268;28;20033;-87
2023/05/26 06:29:25;;;;;;;33.17;4.43;;;;;;;11.31;87.22;102920.53;4976181;28;20038;-87
2023/05/26 06:31:50;;;;;;;35.22;4.95;;;;;;;11.34;86.75;102925.47;4997603;28;20460;-87
2023/05/26 06:34:15;;;;;;;21.50;3.67;;;;;;;11.18;85.72;102915.19;5010608;28;20125;-88
2023/05/26 06:36:41;;;;;;;30.10;4.60;;;;;;;11.09;87.01;102908.44;5010052;28;20037;-88
2023/05/26 06:39:06;;;;;;;24.80;4.50;;;;;;;11.16;87.27;102912.75;5012194;28;20129;-88
2023/05/26 06:41:31;;;;;;;29.97;5.00;;;;;;;11.16;87.69;102911.91;5005912;28;20061;-88
2023/05/26 06:43:57;;;;;;;25.23;4.30;;;;;;;11.10;88.08;102912.75;4975105;28;20376;-88
2023/05/26 06:46:22;;;;;;;29.37;4.23;;;;;;;11.24;87.60;102913.53;4992429;28;20031;-88
2023/05/26 06:48:47;;;;;;;26.27;4.13;;;;;;;11.40;87.25;102917.63;5004342;28;20069;-88
2023/05/26 06:51:13;;;;;;;27.67;3.80;;;;;;;11.43;85.21;102917.19;5011876;28;20026;-87
2023/05/26 06:53:38;;;;;;;31.75;4.40;;;;;;;11.41;83.72;102908.53;5012480;28;20483;-88
2023/05/26 06:56:05;;;;;;;25.90;4.00;;;;;;;11.47;85.47;102923.78;4985643;28;20031;-89
2023/05/26 06:58:31;;;;;;;32.58;4.60;;;;;;;11.57;84.94;102918.78;4992673;28;20085;-88
2023/05/26 07:01:03;;;;;;;28.23;4.30;;;;;;;11.65;83.22;102917.72;4994946;28;20038;-88
2023/05/26 07:03:29;;;;;;;28.55;4.28;;;;;;;11.70;81.92;102919.75;5013192;28;20053;-88
2023/05/26 07:05:55;;;;;;;20.77;3.78;;;;;;;11.78;81.91;102919.50;5016961;28;20053;-88
2023/05/26 07:08:21;;;;;;;30.20;5.05;;;;;;;11.69;81.15;102932.38;5010059;28;20056;-87
2023/05/26 07:10:47;;;;;;;28.37;4.33;;;;;;;11.67;83.10;102926.38;4996031;28;20031;-87
2023/05/26 07:13:14;;;;;;;27.13;4.10;;;;;;;11.71;81.82;102929.47;4997880;28;20163;-88
2023/05/26 07:15:39;;;;;;;22.52;3.92;;;;;;;11.86;82.01;102924.66;4974780;28;20032;-87
2023/05/26 07:18:05;;;;;;;26.73;4.00;;;;;;;11.95;81.00;102926.03;4994694;28;20034;-88
2023/05/26 07:20:30;;;;;;;20.90;3.65;;;;;;;12.03;79.53;102929.56;5012094;28;20026;-88
2023/05/26 07:22:55;;;;;;;34.93;4.57;;;;;;;12.14;81.12;102919.97;5012128;28;20425;-88
2023/05/26 07:25:20;;;;;;;31.63;4.47;;;;;;;12.21;78.32;102921.56;4992411;28;20050;-88
2023/05/26 07:27:46;;;;;;;32.67;5.07;;;;;;;12.17;79.15;102930.25;4991969;28;20023;-88
2023/05/26 07:30:11;;;;;;;28.47;4.90;;;;;;;12.23;78.31;102924.03;4991837;28;20633;-89
2023/05/26 07:32:37;;;;;;;24.73;4.07;;;;;;;12.33;78.98;102926.22;4989971;28;20061;-89
2023/05/26 07:35:02;;;;;;;25.17;3.60;;;;;;;12.54;78.51;102928.56;4993592;28;20034;-88
2023/05/26 07:37:28;;;;;;;20.65;4.10;;;;;;;12.68;77.70;102934.66;4992287;28;20030;-89
2023/05/26 07:39:53;;;;;;;19.67;4.17;;;;;;;12.69;76.47;102935.47;4993363;28;20029;-88
2023/05/26 07:42:18;;;;;;;25.33;4.37;;;;;;;12.70;75.68;102931.72;4996068;28;20034;-88
2023/05/26 07:44:44;;;;;;;22.20;4.87;;;;;;;12.71;75.88;102926.13;4995550;28;20108;-88
2023/05/26 07:47:09;;;;;;;18.83;3.60;;;;;;;12.80;75.85;102936.63;4994747;28;20041;-89
2023/05/26 07:49:34;;;;;;;25.87;3.90;;;;;;;13.00;75.36;102923.78;4995943;28;20019;-88
2023/05/26 07:51:59;;;;;;;20.70;3.80;;;;;;;13.17;74.45;102929.41;4994943;28;20029;-88
2023/05/26 07:54:25;;;;;;;28.65;4.35;;;;;;;13.33;72.65;102929.84;4995589;28;20031;-88
2023/05/26 07:56:50;;;;;;;21.27;3.90;;;;;;;13.35;73.52;102937.72;4995188;28;20530;-87
2023/05/26 07:59:16;;;;;;;24.90;3.90;;;;;;;13.32;72.72;102931.72;4994634;28;20677;-88
2023/05/26 08:01:41;;;;;;;27.15;4.28;;;;;;;13.40;72.31;102932.47;4995702;28;20030;-89
2023/05/26 08:04:07;;;;;;;25.87;4.73;;;;;;;13.51;73.31;102930.94;4995795;28;20026;-88
2023/05/26 08:06:32;;;;;;;23.13;3.93;;;;;;;13.58;71.99;102937.03;4996197;28;20038;-88
2023/05/26 08:08:57;;;;;;;26.57;4.40;;;;;;;13.75;73.07;102927.28;5010752;28;20401;-88
2023/05/26 08:11:23;;;;;;;31.60;4.67;;;;;;;13.75;70.45;102942.63;5018319;28;20030;-88
2023/05/26 08:13:48;;;;;;;22.23;3.80;;;;;;;13.80;69.58;102925.78;5006779;28;20026;-88
2023/05/26 08:16:15;;;;;;;30.50;4.67;;;;;;;13.64;68.17;102941.53;4994287;28;20397;-88
2023/05/26 08:18:41;;;;;;;22.80;4.93;;;;;;;13.59;68.52;102934.13;4995359;28;20026;-88
2023/05/26 08:21:06;;;;;;;25.63;4.20;;;;;;;13.63;70.70;102940.69;4995523;28;20106;-87
2023/05/26 08:23:31;;;;;;;26.90;4.60;;;;;;;13.54;69.77;102927.75;4995609;28;20026;-89
2023/05/26 08:25:57;;;;;;;23.43;4.30;;;;;;;13.75;70.29;102931.88;5008588;28;20077;-89
2023/05/26 08:28:23;;;;;;;24.70;4.57;;;;;;;13.92;71.76;102932.88;4994520;28;20030;-88
2023/05/26 08:30:48;;;;;;;26.17;4.75;;;;;;;13.99;68.32;102930.06;4995341;28;20030;-87
2023/05/26 08:33:13;;;;;;;26.80;4.43;;;;;;;14.06;69.48;102919.19;4995422;28;20038;-87
2023/05/26 08:35:38;;;;;;;23.53;4.30;;;;;;;14.02;68.11;102934.16;4995475;28;20037;-88
2023/05/26 08:38:04;;;;;;;21.17;4.50;;;;;;;14.01;67.05;102927.97;4995516;28;20030;-88
2023/05/26 08:40:29;;;;;;;20.23;4.07;;;;;;;14.04;67.57;102935.59;4978514;28;20536;-88
2023/05/26 08:42:56;;;;;;;29.80;4.73;;;;;;;14.27;68.36;102934.00;4995941;28;20030;-87
2023/05/26 08:45:22;;;;;;;22.92;3.95;;;;;;;14.41;64.28;102934.63;4995510;28;20046;-87
2023/05/26 08:47:48;;;;;;;26.73;4.20;;;;;;;14.53;64.24;102935.44;4995510;28;20034;-87
2023/05/26 08:50:15;;;;;;;21.97;4.27;;;;;;;14.64;63.53;102923.03;4995064;28;20089;-87
2023/05/26 08:52:41;;;;;;;21.40;4.63;;;;;;;14.54;61.10;102922.78;5010249;28;20328;-87
2023/05/26 08:55:08;;;;;;;19.70;3.78;;;;;;;14.67;62.46;102916.34;5010200;28;20065;-86
2023/05/26 08:57:33;;;;;;;19.27;3.75;;;;;;;14.77;62.10;102916.59;5007063;28;20022;-86
2023/05/26 08:59:59;;;;;;;18.90;4.10;;;;;;;14.94;60.12;102921.28;5011221;28;20438;-86
2023/05/26 09:02:26;;;;;;;25.83;4.15;;;;;;;14.93;58.66;102928.59;5004957;28;20026;-86
2023/05/26 09:04:51;;;;;;;20.67;4.10;;;;;;;14.95;58.24;102929.16;5007647;28;20022;-87
2023/05/26 09:07:18;;;;;;;19.53;4.40;;;;;;;15.04;58.99;102921.53;5027073;28;20041;-87
2023/05/26 09:09:43;;;;;;;22.88;4.30;;;;;;;15.34;60.38;102919.72;5018013;28;20030;-86
2023/05/26 09:12:10;;;;;;;17.93;3.90;;;;;;;15.28;57.08;102919.59;5007327;28;20018;-87
2023/05/26 09:14:37;;;;;;;17.05;4.20;;;;;;;15.35;59.02;102915.94;5007910;28;20030;-88
2023/05/26 09:17:03;;;;;;;25.38;4.55;;;;;;;15.37;58.28;102922.75;4995146;28;20022;-87
2023/05/26 09:19:29;;;;;;;24.13;4.97;;;;;;;15.51;57.63;102920.59;4979195;28;20030;-87
2023/05/26 09:21:55;;;;;;;21.73;4.37;;;;;;;15.49;57.30;102924.59;4996200;28;20385;-86
2023/05/26 09:24:26;;;;;;;21.95;4.47;;;;;;;15.48;56.56;102922.94;4998830;28;20026;-86
2023/05/26 09:26:51;;;;;;;21.75;4.57;;;;;;;15.56;55.26;102928.78;4993171;28;20038;-87
2023/05/26 09:29:16;;;;;;;24.20;4.47;;;;;;;15.73;56.06;102936.97;4994200;28;20030;-87
2023/05/26 09:31:49;;;;;;;19.00;3.75;;;;;;;15.75;54.96;102931.31;4994469;28;20377;-87
2023/05/26 09:34:17;;;;;;;19.73;4.07;;;;;;;15.76;54.69;102930.25;4994161;28;20022;-88
2023/05/26 09:36:43;;;;;;;18.83;4.00;;;;;;;15.96;55.07;102929.84;4976644;28;20066;-87
2023/05/26 09:39:13;;;;;;;26.17;4.85;;;;;;;15.97;55.74;102938.75;4993808;28;20027;-86
2023/05/26 09:41:44;;;;;;;18.63;3.78;;;;;;;16.01;52.25;102929.09;4994915;28;20495;-87
2023/05/26 09:44:18;;;;;;;21.75;4.63;;;;;;;16.14;53.67;102933.38;5003254;28;20046;-87
2023/05/26 09:46:45;;;;;;;15.10;3.58;;;;;;;16.28;55.31;102920.34;5014494;28;20065;-87
2023/05/26 09:49:15;;;;;;;19.63;4.22;;;;;;;16.35;52.32;102934.53;5005302;28;20030;-87
2023/05/26 09:51:50;;;;;;;20.40;3.88;;;;;;;16.48;53.17;102931.50;5010133;28;20038;-87
2023/05/26 09:54:15;;;;;;;18.85;3.60;;;;;;;16.50;52.33;102929.38;5023289;28;20022;-87
2023/05/26 09:56:52;;;;;;;18.30;4.57;;;;;;;16.33;51.36;102923.16;5028985;28;20010;-87
2023/05/26 09:59:19;;;;;;;24.27;4.30;;;;;;;16.47;50.39;102927.16;5033933;28;20045;-87
2023/05/26 10:01:45;;;;;;;20.15;3.80;;;;;;;16.66;51.81;102921.47;5019561;28;20104;-88
2023/05/26 10:04:13;;;;;;;19.55;4.18;;;;;;;16.79;50.76;102918.44;5014315;28;20026;-88
2023/05/26 10:06:40;;;;;;;9.85;3.08;;;;;;;16.89;44.64;102911.53;4999126;28;20026;-87
2023/05/26 10:09:07;;;;;;;21.50;3.55;;;;;;;17.03;46.64;102918.25;4999571;28;20112;-88
2023/05/26 10:11:36;;;;;;;19.37;3.80;;;;;;;17.25;46.41;102915.53;5015418;28;20080;-87
2023/05/26 10:14:02;;;;;;;17.00;3.80;;;;;;;17.25;46.43;102915.53;5015334;28;20360;-87
2023/05/26 10:16:29;;;;;;;18.30;3.95;;;;;;;17.46;46.13;102914.97;5026648;28;20022;-85
2023/05/26 10:18:54;;;;;;;12.27;3.55;;;;;;;17.50;44.78;102910.69;5018042;28;20029;-86
2023/05/26 10:21:24;;;;;;;23.20;4.38;;;;;;;17.48;44.87;102913.63;5011096;28;20034;-87
2023/05/26 10:23:58;;;;;;;16.97;4.40;;;;;;;17.57;46.03;102911.28;4992440;28;20064;-86
2023/05/26 10:26:29;;;;;;;17.23;3.42;;;;;;;17.71;47.03;102912.50;4991504;28;20038;-87
2023/05/26 10:29:05;;;;;;;16.48;4.25;;;;;;;17.75;46.64;102915.56;4993446;28;20258;-87
2023/05/26 10:31:33;;;;;;;19.23;4.35;;;;;;;17.62;44.28;102908.63;4993371;28;20358;-87
2023/05/26 10:33:58;;;;;;;15.38;3.95;;;;;;;17.52;45.51;102908.53;4993532;28;20029;-88
2023/05/26 10:36:24;;;;;;;24.70;4.63;;;;;;;17.55;48.69;102902.59;4992242;28;20030;-88
2023/05/26 10:38:55;;;;;;;21.87;4.37;;;;;;;17.77;48.43;102909.84;4993114;28;20378;-88
2023/05/26 10:41:35;;;;;;;18.00;4.65;;;;;;;17.94;47.49;102905.16;4992512;28;20018;-87
2023/05/26 10:44:02;;;;;;;18.30;4.25;;;;;;;17.86;44.06;102897.50;4975025;28;20034;-88
2023/05/26 10:46:46;;;;;;;14.07;4.00;;;;;;;18.12;43.48;102914.00;4991860;28;20102;-87
2023/05/26 10:49:22;;;;;;;10.68;3.50;;;;;;;18.09;43.21;102903.66;4992432;28;20061;-87
2023/05/26 10:51:50;;;;;;;19.92;4.22;;;;;;;17.97;42.85;102904.63;4992492;28;20025;-87
2023/05/26 10:54:18;;;;;;;15.55;3.75;;;;;;;18.20;44.74;102910.00;4991577;28;20022;-86
2023/05/26 10:56:43;;;;;;;15.52;4.00;;;;;;;18.37;43.55;102899.00;4973995;28;20492;-86
2023/05/26 10:59:21;;;;;;;14.20;3.87;;;;;;;18.61;44.19;102891.28;4992158;28;20038;-87
2023/05/26 11:01:51;;;;;;;15.77;3.70;;;;;;;18.95;43.35;102890.16;4992321;28;20018;-87
2023/05/26 11:04:16;;;;;;;18.05;3.83;;;;;;;19.18;43.02;102881.53;4992403;28;20055;-86
2023/05/26 11:06:46;;;;;;;21.00;4.33;;;;;;;19.21;42.17;102893.78;4991046;28;20450;-87
2023/05/26 11:09:11;;;;;;;16.83;4.15;;;;;;;19.10;40.15;102882.06;4992619;28;20034;-87
2023/05/26 11:11:49;;;;;;;17.30;3.88;;;;;;;19.03;39.74;102889.63;5004499;28;20024;-87
2023/05/26 11:14:14;;;;;;;16.93;3.60;;;;;;;19.16;39.23;102886.44;5011612;28;20519;-87
2023/05/26 11:16:43;;;;;;;16.37;3.60;;;;;;;19.30;39.99;102885.94;5011067;28;20384;-87
2023/05/26 11:19:12;;;;;;;14.70;3.83;;;;;;;19.29;38.88;102881.59;5011449;28;20044;-87
2023/05/26 11:21:40;;;;;;;20.63;4.30;;;;;;;19.26;39.96;102876.69;5011394;28;20280;-87
2023/05/26 11:24:06;;;;;;;16.73;4.22;;;;;;;19.49;40.98;102884.34;4996554;28;20058;-87
2023/05/26 11:26:33;;;;;;;17.10;3.85;;;;;;;19.52;39.77;102878.38;4991264;28;20070;-87
2023/05/26 11:29:04;;;;;;;14.07;3.70;;;;;;;19.29;39.27;102879.66;5003440;28;20371;-87
2023/05/26 11:31:30;;;;;;;14.68;3.97;;;;;;;19.39;38.87;102887.03;4974284;28;20034;-87
2023/05/26 11:34:00;;;;;;;14.20;4.00;;;;;;;19.43;39.39;102881.91;4992921;28;20057;-87
2023/05/26 11:36:26;;;;;;;13.93;3.93;;;;;;;19.55;39.40;102879.75;5012681;28;20522;-87
2023/05/26 11:38:56;;;;;;;18.47;3.97;;;;;;;19.55;38.33;102876.19;4992613;28;20320;-88
2023/05/26 11:41:25;;;;;;;15.20;3.60;;;;;;;19.75;37.90;102878.94;4993321;28;20045;-87